Argonne, Minnesota
Current Conditions -  °F | °C
As of 8:29 PM on Wednesday 22 Oct 2014 (Local Time) from KLVN Reporting Station
Clear Clear  
Wind Chill: 12°   Ceiling: Unl
Heat Index: 12°   Visibility: 10mi
Dew Point:   Wind: 9mph
Humidity: 62%   Direction: 160°SSE
Pressure: 30.04"   Gusts: 17mph
Location:  44.6349°N, 93.283°W
Report Text: KLVN 230129Z AUTO 16008G15KT 10SM CLR 12/05 A3004 RMK AO2
Loading
Personal Weather Stations






























Interactive Weather Map
Tropical Storm Tracking
New forecast layout! Learn more

10-Day Weather Forecast

Advertisements
Track Severe Weather on mobile